createdAt,value
2018-12-11T00:00:56.559Z,101770.82
2018-12-11T00:03:24.101Z,101767.12
2018-12-11T00:05:51.583Z,101776.57
2018-12-11T00:08:19.134Z,101773.84
2018-12-11T00:10:46.657Z,101779.96
2018-12-11T00:13:14.146Z,101784.73
2018-12-11T00:15:41.666Z,101779.61
2018-12-11T00:18:09.286Z,101774.45
2018-12-11T00:20:36.810Z,101778.73
2018-12-11T00:23:04.337Z,101770.59
2018-12-11T00:25:31.845Z,101768.94
2018-12-11T00:27:59.339Z,101769.73
2018-12-11T00:30:26.845Z,101779.33
2018-12-11T00:32:54.334Z,101780.67
2018-12-11T00:35:21.863Z,101771.23
2018-12-11T00:37:49.347Z,101756.81
2018-12-11T00:40:16.836Z,101762.73
2018-12-11T00:42:44.358Z,101768.05
2018-12-11T00:45:11.845Z,101768.34
2018-12-11T00:47:39.414Z,101766.45
2018-12-11T00:50:07.667Z,101775.25
2018-12-11T00:52:35.151Z,101773.81
2018-12-11T00:55:02.679Z,101778.98
2018-12-11T00:57:30.165Z,101767.80
2018-12-11T00:59:57.656Z,101767.50
2018-12-11T01:02:25.152Z,101771.72
2018-12-11T01:04:52.715Z,101762.33
2018-12-11T01:07:20.602Z,101767.89
2018-12-11T01:09:48.092Z,101764.63
2018-12-11T01:12:15.586Z,101767.75
2018-12-11T01:14:43.232Z,101771.18
2018-12-11T01:17:10.765Z,101773.81
2018-12-11T01:19:38.325Z,101773.81
2018-12-11T01:22:05.813Z,101781.91
2018-12-11T01:24:33.311Z,101783.49
2018-12-11T01:27:00.831Z,101783.98
2018-12-11T01:29:28.355Z,101792.53
2018-12-11T01:31:56.018Z,101787.17
2018-12-11T01:34:23.510Z,101793.92
2018-12-11T01:36:51.006Z,101792.58
2018-12-11T01:39:18.504Z,101797.15
2018-12-11T01:41:45.988Z,101798.00
2018-12-11T01:44:13.489Z,101793.17
2018-12-11T01:46:41.108Z,101793.23
2018-12-11T01:49:08.595Z,101789.55
2018-12-11T01:51:36.079Z,101777.50
2018-12-11T01:54:03.617Z,101790.16
2018-12-11T01:56:31.110Z,101792.30
2018-12-11T01:58:58.588Z,101785.08
2018-12-11T02:01:26.093Z,101784.25
2018-12-11T02:03:53.588Z,101781.25
2018-12-11T02:06:21.216Z,101780.33
2018-12-11T02:08:48.695Z,101786.66
2018-12-11T02:11:16.189Z,101789.34
2018-12-11T02:13:43.695Z,101790.59
2018-12-11T02:16:11.184Z,101800.77
2018-12-11T02:18:38.752Z,101806.08
2018-12-11T02:21:06.265Z,101809.30
2018-12-11T02:23:33.982Z,101797.05
2018-12-11T02:26:01.485Z,101796.05
2018-12-11T02:28:29.011Z,101792.38
2018-12-11T02:30:58.150Z,101806.34
2018-12-11T02:33:25.697Z,101812.24
2018-12-11T02:35:53.233Z,101805.59
2018-12-11T02:38:20.722Z,101798.45
2018-12-11T02:40:48.203Z,101788.22
2018-12-11T02:43:15.719Z,101793.88
2018-12-11T02:45:43.255Z,101788.81
2018-12-11T02:48:10.821Z,101786.47
2018-12-11T02:50:38.326Z,101783.74
2018-12-11T02:53:05.801Z,101781.30
2018-12-11T02:55:33.449Z,101781.02
2018-12-11T02:58:00.944Z,101788.27
2018-12-11T03:00:28.427Z,101785.23
2018-12-11T03:02:55.986Z,101776.30
2018-12-11T03:05:23.478Z,101777.64
2018-12-11T03:07:51.004Z,101768.23
2018-12-11T03:10:18.479Z,101779.47
2018-12-11T03:12:45.971Z,101782.16
2018-12-11T03:15:13.465Z,101786.72
2018-12-11T03:17:40.969Z,101783.20
2018-12-11T03:20:08.467Z,101776.39
2018-12-11T03:22:35.953Z,101777.23
2018-12-11T03:25:03.461Z,101787.91
2018-12-11T03:27:30.946Z,101798.28
2018-12-11T03:29:58.555Z,101813.22
2018-12-11T03:32:26.039Z,101819.36
2018-12-11T03:34:53.531Z,101838.07
2018-12-11T03:37:21.039Z,101837.78
2018-12-11T03:39:48.513Z,101839.22
2018-12-11T03:42:16.013Z,101818.93
2018-12-11T03:44:43.565Z,101814.17
2018-12-11T03:47:11.040Z,101811.60
2018-12-11T03:49:38.533Z,101803.12
2018-12-11T03:52:06.026Z,101793.47
2018-12-11T03:54:33.533Z,101792.17
2018-12-11T03:57:01.036Z,101789.95
2018-12-11T03:59:28.542Z,101795.86
2018-12-11T04:01:56.041Z,101788.35
2018-12-11T04:04:23.567Z,101789.64
2018-12-11T04:06:51.097Z,101793.37
2018-12-11T04:09:18.578Z,101785.03
2018-12-11T04:11:46.053Z,101787.13
2018-12-11T04:14:13.611Z,101788.09
2018-12-11T04:16:41.167Z,101795.79
2018-12-11T04:19:08.685Z,101796.77
2018-12-11T04:21:36.193Z,101798.36
2018-12-11T04:24:03.711Z,101796.66
2018-12-11T04:26:31.252Z,101790.36
2018-12-11T04:28:58.820Z,101792.77
2018-12-11T04:31:26.302Z,101789.80
2018-12-11T04:33:53.968Z,101783.84
2018-12-11T04:36:21.449Z,101787.11
2018-12-11T04:38:48.933Z,101788.70
2018-12-11T04:41:16.553Z,101788.16
2018-12-11T04:43:44.038Z,101790.03
2018-12-11T04:46:11.521Z,101793.17
2018-12-11T04:48:39.026Z,101785.61
2018-12-11T04:51:06.524Z,101789.63
2018-12-11T04:53:34.233Z,101783.47
2018-12-11T04:56:02.208Z,101778.56
2018-12-11T04:58:29.687Z,101785.26
2018-12-11T05:00:57.306Z,101787.48
2018-12-11T05:03:24.789Z,101786.36
2018-12-11T05:05:52.332Z,101782.87
2018-12-11T05:08:19.826Z,101780.49
2018-12-11T05:10:47.348Z,101786.34
2018-12-11T05:13:14.829Z,101792.20
2018-12-11T05:15:42.667Z,101793.25
2018-12-11T05:18:10.161Z,101780.25
2018-12-11T05:20:37.893Z,101776.95
2018-12-11T05:23:05.371Z,101773.42
2018-12-11T05:25:33.002Z,101768.06
2018-12-11T05:28:00.486Z,101771.03
2018-12-11T05:30:28.016Z,101770.70
2018-12-11T05:32:55.493Z,101785.29
2018-12-11T05:35:23.065Z,101782.36
2018-12-11T05:37:50.583Z,101787.16
2018-12-11T05:40:18.177Z,101787.16
2018-12-11T05:42:45.686Z,101786.33
2018-12-11T05:45:13.220Z,101790.65
2018-12-11T05:47:40.693Z,101782.61
2018-12-11T05:50:08.203Z,101784.78
2018-12-11T05:52:35.720Z,101776.95
2018-12-11T05:55:03.513Z,101776.69
2018-12-11T06:00:08.312Z,101775.53
2018-12-11T06:02:35.851Z,101784.62
2018-12-11T06:05:04.111Z,101783.92
2018-12-11T06:07:31.596Z,101788.48
2018-12-11T06:09:59.123Z,101792.39
2018-12-11T06:12:26.597Z,101794.95
2018-12-11T06:14:54.083Z,101796.53
2018-12-11T06:17:21.614Z,101790.88
2018-12-11T06:19:49.125Z,101787.16
2018-12-11T06:22:16.647Z,101791.98
2018-12-11T06:24:44.257Z,101791.28
2018-12-11T06:27:11.773Z,101795.02
2018-12-11T06:29:39.258Z,101798.73
2018-12-11T06:32:06.762Z,101803.83
2018-12-11T06:34:34.273Z,101803.83
2018-12-11T06:37:01.802Z,101810.79
2018-12-11T06:39:29.334Z,101801.20
2018-12-11T06:41:56.809Z,101799.09
2018-12-11T06:44:24.367Z,101801.23
2018-12-11T06:46:52.094Z,101803.16
2018-12-11T06:49:19.739Z,101805.54
2018-12-11T06:51:47.217Z,101811.38
2018-12-11T06:54:14.738Z,101803.34
2018-12-11T06:56:42.279Z,101803.47
2018-12-11T06:59:09.824Z,101808.89
2018-12-11T07:01:37.370Z,101807.55
2018-12-11T07:04:04.849Z,101814.88
2018-12-11T07:06:32.377Z,101817.55
2018-12-11T07:08:59.861Z,101834.70
2018-12-11T07:11:27.339Z,101830.14
2018-12-11T07:13:54.874Z,101820.47
2018-12-11T07:16:22.390Z,101819.91
2018-12-11T07:18:49.932Z,101828.45
2018-12-11T07:21:17.415Z,101834.82
2018-12-11T07:23:44.905Z,101836.16
2018-12-11T07:26:12.555Z,101842.33
2018-12-11T07:28:40.152Z,101839.94
2018-12-11T07:31:08.476Z,101843.48
2018-12-11T07:33:35.986Z,101838.66
2018-12-11T07:36:03.535Z,101838.66
2018-12-11T07:38:31.074Z,101842.14
2018-12-11T07:40:58.564Z,101844.28
2018-12-11T07:43:26.108Z,101848.60
2018-12-11T07:45:53.584Z,101845.42
2018-12-11T07:48:21.104Z,101844.28
2018-12-11T07:50:48.609Z,101846.97
2018-12-11T07:53:16.143Z,101848.60
2018-12-11T07:55:43.656Z,101856.13
2018-12-11T07:58:11.188Z,101855.30
2018-12-11T08:00:38.660Z,101855.30
2018-12-11T08:03:06.210Z,101856.99
2018-12-11T08:05:33.684Z,101860.48
2018-12-11T08:08:01.185Z,101857.30
2018-12-11T08:10:28.662Z,101867.00
2018-12-11T08:12:56.277Z,101866.19
2018-12-11T08:15:23.766Z,101868.58
2018-12-11T08:17:51.649Z,101872.71
2018-12-11T08:20:19.155Z,101869.80
2018-12-11T08:22:46.680Z,101880.52
2018-12-11T08:25:14.196Z,101883.84
2018-12-11T08:27:41.719Z,101874.53
2018-12-11T08:30:09.369Z,101875.86
2018-12-11T08:32:36.887Z,101872.70
2018-12-11T08:35:04.615Z,101873.52
2018-12-11T08:37:32.220Z,101879.95
2018-12-11T08:39:59.705Z,101883.66
2018-12-11T08:42:27.255Z,101882.33
2018-12-11T08:44:54.831Z,101886.64
2018-12-11T08:47:22.365Z,101887.15
2018-12-11T08:49:49.846Z,101886.11
2018-12-11T08:52:17.392Z,101878.13
2018-12-11T08:54:44.927Z,101882.14
2018-12-11T08:57:12.584Z,101887.20
2018-12-11T08:59:40.067Z,101893.34
2018-12-11T09:02:07.932Z,101894.63
2018-12-11T09:04:35.543Z,101890.06
2018-12-11T09:07:03.058Z,101896.77
2018-12-11T09:09:30.531Z,101900.31
2018-12-11T09:11:58.194Z,101905.52
2018-12-11T09:14:25.673Z,101902.87
2018-12-11T09:16:53.184Z,101897.92
2018-12-11T09:19:20.691Z,101902.80
2018-12-11T09:21:48.213Z,101902.12
2018-12-11T09:24:15.726Z,101901.98
2018-12-11T09:26:43.269Z,101907.17
2018-12-11T09:29:10.932Z,101919.83
2018-12-11T09:31:38.549Z,101910.31
2018-12-11T09:34:06.103Z,101913.38
2018-12-11T09:36:33.585Z,101916.22
2018-12-11T09:39:01.094Z,101920.05
2018-12-11T09:41:28.576Z,101915.84
2018-12-11T09:43:56.101Z,101927.53
2018-12-11T09:46:23.583Z,101919.59
2018-12-11T09:48:51.114Z,101925.66
2018-12-11T09:51:18.626Z,101935.71
2018-12-11T09:53:46.276Z,101937.70
2018-12-11T09:56:13.776Z,101931.35
2018-12-11T09:58:41.303Z,101928.28
2018-12-11T10:01:09.259Z,101932.99
2018-12-11T10:03:36.903Z,101934.94
2018-12-11T10:06:04.501Z,101938.06
2018-12-11T10:08:31.988Z,101927.88
2018-12-11T10:10:59.491Z,101931.95
2018-12-11T10:13:27.017Z,101931.25
2018-12-11T10:15:54.495Z,101929.45
2018-12-11T10:18:21.996Z,101933.23
2018-12-11T10:20:49.567Z,101937.11
2018-12-11T10:23:17.713Z,101937.11
2018-12-11T10:25:45.234Z,101941.44
2018-12-11T10:28:12.813Z,101939.34
2018-12-11T10:30:45.959Z,101945.90
2018-12-11T10:33:13.455Z,101947.30
2018-12-11T10:35:41.002Z,101945.49
2018-12-11T10:38:08.535Z,101941.69
2018-12-11T10:40:36.021Z,101944.75
2018-12-11T10:43:03.552Z,101944.30
2018-12-11T10:45:31.345Z,101947.11
2018-12-11T10:47:58.901Z,101945.09
2018-12-11T10:50:26.427Z,101949.61
2018-12-11T10:52:53.936Z,101945.69
2018-12-11T10:55:21.640Z,101948.13
2018-12-11T10:57:49.120Z,101936.83
2018-12-11T11:00:22.294Z,101940.60
2018-12-11T11:02:55.383Z,101935.77
2018-12-11T11:05:22.900Z,101933.88
2018-12-11T11:07:50.765Z,101936.53
2018-12-11T11:10:18.265Z,101934.35
2018-12-11T11:12:45.749Z,101927.23
2018-12-11T11:15:13.289Z,101931.02
2018-12-11T11:17:40.836Z,101923.73
2018-12-11T11:20:08.384Z,101928.36
2018-12-11T11:22:35.869Z,101922.76
2018-12-11T11:25:03.363Z,101930.06
2018-12-11T11:27:31.027Z,101927.41
2018-12-11T11:29:58.557Z,101925.55
2018-12-11T11:32:26.066Z,101927.52
2018-12-11T11:34:53.601Z,101928.97
2018-12-11T11:37:21.154Z,101930.86
2018-12-11T11:39:48.681Z,101930.16
2018-12-11T11:42:17.972Z,101932.66
2018-12-11T11:44:45.630Z,101928.66
2018-12-11T11:47:13.213Z,101927.11
2018-12-11T11:49:40.702Z,101924.19
2018-12-11T11:52:08.235Z,101925.05
2018-12-11T11:54:35.718Z,101925.34
2018-12-11T11:57:03.491Z,101928.06
2018-12-11T11:59:30.992Z,101934.09
2018-12-11T12:01:58.510Z,101922.20
2018-12-11T12:04:26.185Z,101930.84
2018-12-11T12:06:53.668Z,101938.73
2018-12-11T12:09:21.157Z,101931.73
2018-12-11T12:11:48.804Z,101939.33
2018-12-11T12:14:16.300Z,101937.73
2018-12-11T12:16:43.780Z,101936.09
2018-12-11T12:19:11.460Z,101934.55
2018-12-11T12:21:38.940Z,101938.59
2018-12-11T12:24:06.478Z,101937.23
2018-12-11T12:26:33.980Z,101939.98
2018-12-11T12:29:01.523Z,101944.05
2018-12-11T12:31:29.188Z,101950.04
2018-12-11T12:33:56.760Z,101948.47
2018-12-11T12:36:24.236Z,101944.96
2018-12-11T12:38:51.776Z,101949.03
2018-12-11T12:41:19.347Z,101942.61
2018-12-11T12:43:46.968Z,101948.87
2018-12-11T12:46:14.486Z,101945.63
2018-12-11T12:48:42.007Z,101942.70
2018-12-11T12:51:09.503Z,101939.75
2018-12-11T12:53:37.022Z,101938.45
2018-12-11T12:56:04.533Z,101939.52
2018-12-11T12:58:32.019Z,101938.23
2018-12-11T13:00:59.632Z,101942.51
2018-12-11T13:03:27.429Z,101930.08
2018-12-11T13:05:55.044Z,101940.38
2018-12-11T13:08:22.556Z,101943.61
2018-12-11T13:10:50.173Z,101933.92
2018-12-11T13:13:17.645Z,101941.47
2018-12-11T13:15:45.138Z,101940.14
2018-12-11T13:18:12.756Z,101941.80
2018-12-11T13:20:40.332Z,101938.25
2018-12-11T13:23:07.817Z,101945.30
2018-12-11T13:25:35.321Z,101945.03
2018-12-11T13:28:02.882Z,101945.60
2018-12-11T13:30:30.428Z,101948.34
2018-12-11T13:32:58.036Z,101951.56
2018-12-11T13:35:25.537Z,101948.39
2018-12-11T13:37:53.021Z,101947.55
2018-12-11T13:40:20.713Z,101947.55
2018-12-11T13:42:48.205Z,101949.72
2018-12-11T13:45:18.852Z,101947.81
2018-12-11T13:47:46.824Z,101949.95
2018-12-11T13:50:14.373Z,101950.52
2018-12-11T13:52:41.860Z,101949.95
2018-12-11T13:55:09.448Z,101955.06
2018-12-11T13:57:36.962Z,101952.33
2018-12-11T14:00:06.026Z,101951.23
2018-12-11T14:02:33.641Z,101948.78
2018-12-11T14:05:01.205Z,101954.44
2018-12-11T14:07:28.707Z,101959.78
2018-12-11T14:09:56.320Z,101950.03
2018-12-11T14:12:23.811Z,101955.42
2018-12-11T14:14:51.344Z,101964.58
2018-12-11T14:17:18.918Z,101962.41
2018-12-11T14:19:46.409Z,101963.70
2018-12-11T14:22:14.016Z,101959.37
2018-12-11T14:24:41.512Z,101969.33
2018-12-11T14:27:09.013Z,101971.48
2018-12-11T14:29:37.030Z,101967.67
2018-12-11T14:32:04.552Z,101968.45
2018-12-11T14:34:32.285Z,101961.39
2018-12-11T14:36:59.850Z,101966.21
2018-12-11T14:39:27.354Z,101967.53
2018-12-11T14:41:54.923Z,101973.41
2018-12-11T14:44:22.445Z,101971.78
2018-12-11T14:46:49.987Z,101974.16
2018-12-11T14:49:17.539Z,101976.25
2018-12-11T14:51:45.028Z,101970.55
2018-12-11T14:54:12.575Z,101974.55
2018-12-11T14:56:40.193Z,101972.34
2018-12-11T14:59:07.863Z,101974.72
2018-12-11T15:01:35.368Z,101980.11
2018-12-11T15:04:02.879Z,101981.42
2018-12-11T15:06:30.369Z,101979.50
2018-12-11T15:09:00.024Z,101974.62
2018-12-11T15:11:27.550Z,101976.77
2018-12-11T15:13:55.080Z,101970.55
2018-12-11T15:16:22.854Z,101975.39
2018-12-11T15:18:50.337Z,101979.39
2018-12-11T15:21:17.869Z,101978.27
2018-12-11T15:23:45.353Z,101976.60
2018-12-11T15:26:12.842Z,101977.98
2018-12-11T15:28:40.477Z,101980.54
2018-12-11T15:31:09.345Z,101979.41
2018-12-11T15:33:36.884Z,101971.48
2018-12-11T15:36:04.509Z,101975.02
2018-12-11T15:38:32.006Z,101984.14
2018-12-11T15:40:59.502Z,101979.48
2018-12-11T15:43:27.339Z,101986.44
2018-12-11T15:46:00.878Z,101985.59
2018-12-11T15:48:24.516Z,101985.81
2018-12-11T15:50:52.037Z,101989.48
2018-12-11T15:53:19.522Z,101987.72
2018-12-11T15:55:47.066Z,101990.91
2018-12-11T15:58:14.543Z,101997.94
2018-12-11T16:00:42.084Z,101994.11
2018-12-11T16:03:09.678Z,102001.30
2018-12-11T16:05:37.177Z,102002.39
2018-12-11T16:08:04.772Z,102001.77
2018-12-11T16:10:32.324Z,101996.27
2018-12-11T16:12:59.940Z,102000.52
2018-12-11T16:15:27.426Z,102009.37
2018-12-11T16:17:54.956Z,102000.97
2018-12-11T16:20:22.465Z,102002.06
2018-12-11T16:22:50.003Z,102006.59
2018-12-11T16:25:17.680Z,102009.95
2018-12-11T16:27:45.322Z,102010.80
2018-12-11T16:30:12.980Z,101999.66
2018-12-11T16:32:40.587Z,102014.24
2018-12-11T16:35:08.231Z,102004.73
2018-12-11T16:37:36.002Z,102008.77
2018-12-11T16:40:04.984Z,102009.52
2018-12-11T16:42:32.798Z,102012.66
2018-12-11T16:45:00.309Z,102015.09
2018-12-11T16:47:27.799Z,102016.73
2018-12-11T16:49:55.356Z,102021.23
2018-12-11T16:52:22.848Z,102022.02
2018-12-11T16:54:50.484Z,102030.08
2018-12-11T16:57:18.033Z,102036.02
2018-12-11T16:59:45.519Z,102033.28
2018-12-11T17:02:13.111Z,102032.63
2018-12-11T17:04:40.593Z,102036.16
2018-12-11T17:07:08.314Z,102038.85
2018-12-11T17:09:37.867Z,102041.49
2018-12-11T17:12:05.881Z,102053.17
2018-12-11T17:14:33.368Z,102051.83
2018-12-11T17:17:00.922Z,102065.27
2018-12-11T17:19:28.405Z,102063.38
2018-12-11T17:21:55.894Z,102066.88
2018-12-11T17:24:23.428Z,102074.19
2018-12-11T17:26:50.914Z,102074.48
2018-12-11T17:29:23.948Z,102078.02
2018-12-11T17:31:47.942Z,102079.66
2018-12-11T17:34:15.435Z,102068.86
2018-12-11T17:36:42.983Z,102075.92
2018-12-11T17:39:10.806Z,102088.28
2018-12-11T17:41:38.375Z,102082.64
2018-12-11T17:44:05.861Z,102087.13
2018-12-11T17:46:33.495Z,102088.52
2018-12-11T17:49:01.377Z,102084.20
2018-12-11T17:51:28.990Z,102078.02
2018-12-11T17:53:56.562Z,102075.08
2018-12-11T17:56:24.108Z,102070.25
2018-12-11T17:58:51.656Z,102076.43
2018-12-11T18:01:20.139Z,102072.39
2018-12-11T18:03:47.664Z,102080.66
2018-12-11T18:06:15.292Z,102082.25
2018-12-11T18:08:42.782Z,102076.48
2018-12-11T18:11:10.300Z,102079.12
2018-12-11T18:13:37.883Z,102081.75
2018-12-11T18:16:05.375Z,102085.23
2018-12-11T18:18:33.006Z,102089.27
2018-12-11T18:21:00.491Z,102091.06
2018-12-11T18:23:28.027Z,102093.99
2018-12-11T18:25:55.552Z,102094.53
2018-12-11T18:28:23.046Z,102093.73
2018-12-11T18:30:50.600Z,102090.26
2018-12-11T18:33:18.096Z,102091.84
2018-12-11T18:35:45.656Z,102090.50
2018-12-11T18:38:13.203Z,102081.59
2018-12-11T18:40:40.823Z,102093.73
2018-12-11T18:43:08.336Z,102094.23
2018-12-11T18:45:35.988Z,102102.00
2018-12-11T18:48:03.691Z,102098.22
2018-12-11T18:50:31.239Z,102092.23
2018-12-11T18:52:58.766Z,102099.80
2018-12-11T18:55:26.311Z,102094.63
2018-12-11T18:57:53.822Z,102094.92
2018-12-11T19:00:21.327Z,102102.09
2018-12-11T19:02:48.878Z,102095.11
2018-12-11T19:05:16.443Z,102098.50
2018-12-11T19:07:43.959Z,102101.97
2018-12-11T19:10:11.585Z,102104.97
2018-12-11T19:12:39.167Z,102107.90
2018-12-11T19:15:06.686Z,102104.91
2018-12-11T19:17:34.274Z,102108.03
2018-12-11T19:20:01.790Z,102110.53
2018-12-11T19:22:29.298Z,102109.97
2018-12-11T19:24:56.845Z,102108.03
2018-12-11T19:27:24.337Z,102111.20
2018-12-11T19:29:51.847Z,102118.67
2018-12-11T19:32:19.563Z,102119.91
2018-12-11T19:34:47.168Z,102112.63
2018-12-11T19:37:14.707Z,102109.89
2018-12-11T19:39:42.213Z,102112.22
2018-12-11T19:42:09.859Z,102116.73
2018-12-11T19:44:37.348Z,102118.55
2018-12-11T19:47:04.893Z,102123.03
2018-12-11T19:49:32.454Z,102113.81
2018-12-11T19:52:00.019Z,102118.03
2018-12-11T19:54:27.731Z,102115.28
2018-12-11T19:56:55.256Z,102123.81
2018-12-11T19:59:22.780Z,102124.80
2018-12-11T20:01:50.622Z,102116.94
2018-12-11T20:04:18.807Z,102117.35
2018-12-11T20:06:46.358Z,102113.51
2018-12-11T20:09:14.125Z,102114.79
2018-12-11T20:11:42.611Z,102117.34
2018-12-11T20:14:10.146Z,102120.53
2018-12-11T20:16:37.662Z,102115.65
2018-12-11T20:19:05.288Z,102119.11
2018-12-11T20:21:32.824Z,102120.15
2018-12-11T20:24:05.004Z,102121.79
2018-12-11T20:26:30.005Z,102126.86
2018-12-11T20:28:57.575Z,102134.06
2018-12-11T20:31:25.092Z,102138.87
2018-12-11T20:33:52.771Z,102130.52
2018-12-11T20:36:20.301Z,102133.20
2018-12-11T20:38:47.805Z,102139.91
2018-12-11T20:41:15.590Z,102138.80
2018-12-11T20:43:43.130Z,102139.84
2018-12-11T20:46:10.632Z,102147.89
2018-12-11T20:48:38.232Z,102141.42
2018-12-11T20:51:05.752Z,102143.30
2018-12-11T20:53:33.331Z,102143.54
2018-12-11T20:56:00.895Z,102140.02
2018-12-11T20:58:28.552Z,102144.58
2018-12-11T21:00:56.067Z,102145.92
2018-12-11T21:03:23.558Z,102155.25
2018-12-11T21:05:51.218Z,102146.90
2018-12-11T21:08:18.779Z,102150.62
2018-12-11T21:10:46.329Z,102154.58
2018-12-11T21:13:13.923Z,102153.48
2018-12-11T21:15:41.562Z,102153.41
2018-12-11T21:18:09.099Z,102144.27
2018-12-11T21:20:36.698Z,102155.22
2018-12-11T21:23:04.220Z,102154.63
2018-12-11T21:25:31.834Z,102154.35
2018-12-11T21:27:59.386Z,102167.97
2018-12-11T21:30:27.038Z,102163.07
2018-12-11T21:32:54.582Z,102169.14
2018-12-11T21:35:22.087Z,102168.17
2018-12-11T21:37:49.626Z,102165.15
2018-12-11T21:40:17.227Z,102168.50
2018-12-11T21:42:44.797Z,102160.09
2018-12-11T21:45:12.406Z,102160.78
2018-12-11T21:47:39.957Z,102163.09
2018-12-11T21:50:07.515Z,102161.11
2018-12-11T21:52:35.097Z,102160.44
2018-12-11T21:55:02.607Z,102165.66
2018-12-11T21:57:30.194Z,102157.27
2018-12-11T21:59:57.680Z,102165.75
2018-12-11T22:02:25.214Z,102165.47
2018-12-11T22:04:52.702Z,102162.49
2018-12-11T22:07:20.269Z,102168.08
2018-12-11T22:09:49.562Z,102170.45
2018-12-11T22:12:17.295Z,102171.03
2018-12-11T22:14:44.854Z,102168.66
2018-12-11T22:17:12.436Z,102164.14
2018-12-11T22:19:40.375Z,102164.14
2018-12-11T22:22:08.004Z,102163.38
2018-12-11T22:24:35.589Z,102158.55
2018-12-11T22:27:03.177Z,102157.51
2018-12-11T22:29:30.696Z,102166.66
2018-12-11T22:31:58.275Z,102163.38
2018-12-11T22:34:25.791Z,102165.81
2018-12-11T22:36:53.329Z,102170.38
2018-12-11T22:39:20.881Z,102172.98
2018-12-11T22:41:48.501Z,102171.80
2018-12-11T22:44:16.015Z,102177.69
2018-12-11T22:46:43.526Z,102192.36
2018-12-11T22:49:11.070Z,102183.17
2018-12-11T22:51:39.207Z,102188.34
2018-12-11T22:54:06.994Z,102181.03
2018-12-11T22:56:34.511Z,102180.00
2018-12-11T22:59:02.071Z,102187.73
2018-12-11T23:01:29.612Z,102195.92
2018-12-11T23:03:57.174Z,102197.99
2018-12-11T23:06:24.721Z,102197.11
2018-12-11T23:08:52.256Z,102200.83
2018-12-11T23:11:19.977Z,102203.43
2018-12-11T23:13:47.522Z,102199.64
2018-12-11T23:16:15.079Z,102207.45
2018-12-11T23:18:42.600Z,102211.70
2018-12-11T23:21:10.084Z,102212.23
2018-12-11T23:23:37.602Z,102216.02
2018-12-11T23:26:05.177Z,102215.28
2018-12-11T23:28:32.942Z,102204.04
2018-12-11T23:31:00.471Z,102208.67
2018-12-11T23:33:28.059Z,102212.45
2018-12-11T23:35:55.702Z,102217.05
2018-12-11T23:38:23.259Z,102215.48
2018-12-11T23:40:50.750Z,102219.07
2018-12-11T23:43:18.330Z,102221.30
2018-12-11T23:45:45.827Z,102225.16
2018-12-11T23:48:13.391Z,102215.55
2018-12-11T23:50:40.992Z,102220.48
2018-12-11T23:53:08.492Z,102222.39
2018-12-11T23:55:35.999Z,102221.36
2018-12-11T23:58:03.563Z,102218.98
